sensor_id;sensor_type;location;lat;lon;timestamp;P1;durP1;ratioP1;P2;durP2;ratioP2
9783;SDS011;4931;44.874;-1.092;2023-08-17T00:00:28;7.10;;;3.70;;
9783;SDS011;4931;44.874;-1.092;2023-08-17T00:02:54;7.40;;;3.72;;
9783;SDS011;4931;44.874;-1.092;2023-08-17T00:05:20;8.07;;;3.53;;
9783;SDS011;4931;44.874;-1.092;2023-08-17T00:07:45;9.90;;;3.92;;
9783;SDS011;4931;44.874;-1.092;2023-08-17T00:10:11;6.60;;;3.50;;
9783;SDS011;4931;44.874;-1.092;2023-08-17T00:12:36;8.10;;;3.40;;
9783;SDS011;4931;44.874;-1.092;2023-08-17T00:15:02;6.90;;;3.40;;
9783;SDS011;4931;44.874;-1.092;2023-08-17T00:17:28;10.75;;;3.45;;
9783;SDS011;4931;44.874;-1.092;2023-08-17T00:19:53;12.48;;;3.60;;
9783;SDS011;4931;44.874;-1.092;2023-08-17T00:22:18;8.07;;;3.58;;
9783;SDS011;4931;44.874;-1.092;2023-08-17T00:24:44;10.45;;;3.72;;
9783;SDS011;4931;44.874;-1.092;2023-08-17T00:27:10;8.98;;;4.03;;
9783;SDS011;4931;44.874;-1.092;2023-08-17T00:29:36;8.38;;;3.25;;
9783;SDS011;4931;44.874;-1.092;2023-08-17T00:32:02;7.22;;;3.75;;
9783;SDS011;4931;44.874;-1.092;2023-08-17T00:34:29;8.30;;;3.55;;
9783;SDS011;4931;44.874;-1.092;2023-08-17T00:36:54;10.10;;;3.58;;
9783;SDS011;4931;44.874;-1.092;2023-08-17T00:39:20;7.05;;;3.13;;
9783;SDS011;4931;44.874;-1.092;2023-08-17T00:41:45;7.88;;;3.15;;
9783;SDS011;4931;44.874;-1.092;2023-08-17T00:44:11;7.22;;;3.25;;
9783;SDS011;4931;44.874;-1.092;2023-08-17T00:46:37;10.77;;;3.42;;
9783;SDS011;4931;44.874;-1.092;2023-08-17T00:49:03;10.18;;;3.67;;
9783;SDS011;4931;44.874;-1.092;2023-08-17T00:51:29;8.10;;;3.75;;
9783;SDS011;4931;44.874;-1.092;2023-08-17T00:53:57;7.72;;;3.30;;
9783;SDS011;4931;44.874;-1.092;2023-08-17T00:56:24;4.53;;;3.10;;
9783;SDS011;4931;44.874;-1.092;2023-08-17T00:58:51;7.10;;;3.70;;
9783;SDS011;4931;44.874;-1.092;2023-08-17T01:01:16;10.50;;;3.65;;
9783;SDS011;4931;44.874;-1.092;2023-08-17T01:03:43;7.70;;;3.75;;
9783;SDS011;4931;44.874;-1.092;2023-08-17T01:06:08;7.18;;;3.90;;
9783;SDS011;4931;44.874;-1.092;2023-08-17T01:08:35;7.80;;;3.35;;
9783;SDS011;4931;44.874;-1.092;2023-08-17T01:11:05;8.25;;;3.53;;
9783;SDS011;4931;44.874;-1.092;2023-08-17T01:13:46;10.00;;;3.58;;
9783;SDS011;4931;44.874;-1.092;2023-08-17T01:16:18;9.07;;;3.85;;
9783;SDS011;4931;44.874;-1.092;2023-08-17T01:18:49;9.93;;;3.80;;
9783;SDS011;4931;44.874;-1.092;2023-08-17T01:21:16;7.85;;;3.72;;
9783;SDS011;4931;44.874;-1.092;2023-08-17T01:23:45;9.43;;;3.72;;
9783;SDS011;4931;44.874;-1.092;2023-08-17T01:26:11;9.60;;;3.67;;
9783;SDS011;4931;44.874;-1.092;2023-08-17T01:28:40;5.25;;;3.55;;
9783;SDS011;4931;44.874;-1.092;2023-08-17T01:33:46;9.75;;;3.95;;
9783;SDS011;4931;44.874;-1.092;2023-08-17T01:36:20;11.88;;;3.60;;
9783;SDS011;4931;44.874;-1.092;2023-08-17T01:38:53;8.82;;;3.97;;
9783;SDS011;4931;44.874;-1.092;2023-08-17T01:43:47;9.38;;;3.90;;
9783;SDS011;4931;44.874;-1.092;2023-08-17T01:46:14;8.82;;;3.80;;
9783;SDS011;4931;44.874;-1.092;2023-08-17T01:48:43;11.05;;;3.55;;
9783;SDS011;4931;44.874;-1.092;2023-08-17T01:51:16;8.20;;;3.80;;
9783;SDS011;4931;44.874;-1.092;2023-08-17T01:53:44;9.93;;;3.92;;
9783;SDS011;4931;44.874;-1.092;2023-08-17T01:56:10;7.72;;;3.80;;
9783;SDS011;4931;44.874;-1.092;2023-08-17T01:58:36;9.35;;;3.80;;
9783;SDS011;4931;44.874;-1.092;2023-08-17T02:01:01;9.27;;;3.95;;
9783;SDS011;4931;44.874;-1.092;2023-08-17T02:03:27;10.88;;;4.18;;
9783;SDS011;4931;44.874;-1.092;2023-08-17T02:05:55;9.93;;;4.15;;
9783;SDS011;4931;44.874;-1.092;2023-08-17T02:08:22;8.23;;;4.28;;
9783;SDS011;4931;44.874;-1.092;2023-08-17T02:10:47;12.85;;;4.57;;
9783;SDS011;4931;44.874;-1.092;2023-08-17T02:13:13;7.18;;;4.05;;
9783;SDS011;4931;44.874;-1.092;2023-08-17T02:15:39;5.97;;;3.47;;
9783;SDS011;4931;44.874;-1.092;2023-08-17T02:18:05;4.95;;;3.67;;
9783;SDS011;4931;44.874;-1.092;2023-08-17T02:20:31;6.32;;;3.65;;
9783;SDS011;4931;44.874;-1.092;2023-08-17T02:22:56;10.07;;;3.83;;
9783;SDS011;4931;44.874;-1.092;2023-08-17T02:25:22;6.13;;;3.80;;
9783;SDS011;4931;44.874;-1.092;2023-08-17T02:27:47;8.35;;;3.88;;
9783;SDS011;4931;44.874;-1.092;2023-08-17T02:30:13;7.43;;;4.05;;
9783;SDS011;4931;44.874;-1.092;2023-08-17T02:32:38;9.45;;;4.35;;
9783;SDS011;4931;44.874;-1.092;2023-08-17T02:35:04;8.13;;;3.80;;
9783;SDS011;4931;44.874;-1.092;2023-08-17T02:37:30;9.45;;;4.05;;
9783;SDS011;4931;44.874;-1.092;2023-08-17T02:39:56;6.82;;;3.75;;
9783;SDS011;4931;44.874;-1.092;2023-08-17T02:42:22;6.95;;;3.60;;
9783;SDS011;4931;44.874;-1.092;2023-08-17T02:44:48;6.20;;;3.55;;
9783;SDS011;4931;44.874;-1.092;2023-08-17T02:47:13;8.40;;;4.10;;
9783;SDS011;4931;44.874;-1.092;2023-08-17T02:49:39;7.45;;;3.92;;
9783;SDS011;4931;44.874;-1.092;2023-08-17T02:52:04;8.75;;;4.05;;
9783;SDS011;4931;44.874;-1.092;2023-08-17T02:54:30;6.03;;;3.55;;
9783;SDS011;4931;44.874;-1.092;2023-08-17T02:56:56;7.05;;;3.90;;
9783;SDS011;4931;44.874;-1.092;2023-08-17T02:59:22;9.23;;;3.95;;
9783;SDS011;4931;44.874;-1.092;2023-08-17T03:01:48;10.40;;;4.20;;
9783;SDS011;4931;44.874;-1.092;2023-08-17T03:04:14;7.93;;;3.83;;
9783;SDS011;4931;44.874;-1.092;2023-08-17T03:06:39;6.85;;;4.20;;
9783;SDS011;4931;44.874;-1.092;2023-08-17T03:09:05;8.45;;;4.38;;
9783;SDS011;4931;44.874;-1.092;2023-08-17T03:11:30;6.50;;;3.85;;
9783;SDS011;4931;44.874;-1.092;2023-08-17T03:13:56;7.32;;;3.95;;
9783;SDS011;4931;44.874;-1.092;2023-08-17T03:16:28;8.10;;;4.05;;
9783;SDS011;4931;44.874;-1.092;2023-08-17T03:18:55;6.82;;;3.80;;
9783;SDS011;4931;44.874;-1.092;2023-08-17T03:21:21;8.48;;;4.53;;
9783;SDS011;4931;44.874;-1.092;2023-08-17T03:23:47;7.47;;;4.00;;
9783;SDS011;4931;44.874;-1.092;2023-08-17T03:26:14;9.52;;;4.47;;
9783;SDS011;4931;44.874;-1.092;2023-08-17T03:28:39;9.52;;;4.20;;
9783;SDS011;4931;44.874;-1.092;2023-08-17T03:31:06;7.85;;;4.50;;
9783;SDS011;4931;44.874;-1.092;2023-08-17T03:33:32;6.60;;;4.38;;
9783;SDS011;4931;44.874;-1.092;2023-08-17T03:35:58;6.97;;;4.30;;
9783;SDS011;4931;44.874;-1.092;2023-08-17T03:38:23;5.38;;;4.00;;
9783;SDS011;4931;44.874;-1.092;2023-08-17T03:40:48;9.00;;;4.80;;
9783;SDS011;4931;44.874;-1.092;2023-08-17T03:43:14;7.53;;;4.53;;
9783;SDS011;4931;44.874;-1.092;2023-08-17T03:45:42;8.52;;;4.80;;
9783;SDS011;4931;44.874;-1.092;2023-08-17T03:48:08;7.38;;;4.95;;
9783;SDS011;4931;44.874;-1.092;2023-08-17T03:50:34;9.55;;;5.07;;
9783;SDS011;4931;44.874;-1.092;2023-08-17T03:52:59;8.57;;;5.30;;
9783;SDS011;4931;44.874;-1.092;2023-08-17T03:55:25;7.65;;;4.55;;
9783;SDS011;4931;44.874;-1.092;2023-08-17T03:57:50;10.10;;;4.80;;
9783;SDS011;4931;44.874;-1.092;2023-08-17T04:00:16;8.23;;;5.00;;
9783;SDS011;4931;44.874;-1.092;2023-08-17T04:02:41;9.23;;;4.93;;
9783;SDS011;4931;44.874;-1.092;2023-08-17T04:05:08;5.90;;;4.70;;
9783;SDS011;4931;44.874;-1.092;2023-08-17T04:10:07;9.38;;;4.93;;
9783;SDS011;4931;44.874;-1.092;2023-08-17T04:12:34;12.23;;;5.00;;
9783;SDS011;4931;44.874;-1.092;2023-08-17T04:14:59;11.32;;;5.35;;
9783;SDS011;4931;44.874;-1.092;2023-08-17T04:17:25;8.55;;;4.90;;
9783;SDS011;4931;44.874;-1.092;2023-08-17T04:19:51;11.55;;;5.22;;
9783;SDS011;4931;44.874;-1.092;2023-08-17T04:22:17;8.60;;;5.00;;
9783;SDS011;4931;44.874;-1.092;2023-08-17T04:24:42;8.32;;;5.00;;
9783;SDS011;4931;44.874;-1.092;2023-08-17T04:27:08;10.60;;;5.65;;
9783;SDS011;4931;44.874;-1.092;2023-08-17T04:29:33;8.13;;;5.10;;
9783;SDS011;4931;44.874;-1.092;2023-08-17T04:31:59;12.02;;;5.38;;
9783;SDS011;4931;44.874;-1.092;2023-08-17T04:34:25;10.07;;;5.38;;
9783;SDS011;4931;44.874;-1.092;2023-08-17T04:36:50;7.78;;;5.28;;
9783;SDS011;4931;44.874;-1.092;2023-08-17T04:39:16;11.63;;;5.30;;
9783;SDS011;4931;44.874;-1.092;2023-08-17T04:41:42;10.02;;;5.35;;
9783;SDS011;4931;44.874;-1.092;2023-08-17T04:44:07;7.03;;;5.40;;
9783;SDS011;4931;44.874;-1.092;2023-08-17T04:46:33;9.15;;;5.70;;
9783;SDS011;4931;44.874;-1.092;2023-08-17T04:48:58;10.70;;;5.30;;
9783;SDS011;4931;44.874;-1.092;2023-08-17T04:51:24;9.27;;;5.03;;
9783;SDS011;4931;44.874;-1.092;2023-08-17T04:53:49;6.65;;;5.10;;
9783;SDS011;4931;44.874;-1.092;2023-08-17T04:56:15;10.23;;;4.85;;
9783;SDS011;4931;44.874;-1.092;2023-08-17T04:58:40;13.50;;;5.15;;
9783;SDS011;4931;44.874;-1.092;2023-08-17T05:01:06;8.45;;;4.75;;
9783;SDS011;4931;44.874;-1.092;2023-08-17T05:03:31;9.88;;;5.15;;
9783;SDS011;4931;44.874;-1.092;2023-08-17T05:05:57;10.40;;;5.32;;
9783;SDS011;4931;44.874;-1.092;2023-08-17T05:08:33;9.13;;;4.88;;
9783;SDS011;4931;44.874;-1.092;2023-08-17T05:10:58;9.20;;;5.13;;
9783;SDS011;4931;44.874;-1.092;2023-08-17T05:13:24;9.27;;;5.68;;
9783;SDS011;4931;44.874;-1.092;2023-08-17T05:15:49;9.02;;;5.30;;
9783;SDS011;4931;44.874;-1.092;2023-08-17T05:18:15;7.03;;;4.60;;
9783;SDS011;4931;44.874;-1.092;2023-08-17T05:20:40;9.27;;;5.13;;
9783;SDS011;4931;44.874;-1.092;2023-08-17T05:23:06;9.27;;;5.05;;
9783;SDS011;4931;44.874;-1.092;2023-08-17T05:25:31;9.65;;;5.22;;
9783;SDS011;4931;44.874;-1.092;2023-08-17T05:27:57;13.73;;;5.63;;
9783;SDS011;4931;44.874;-1.092;2023-08-17T05:30:22;8.57;;;5.07;;
9783;SDS011;4931;44.874;-1.092;2023-08-17T05:32:48;8.95;;;5.53;;
9783;SDS011;4931;44.874;-1.092;2023-08-17T05:35:13;10.77;;;4.68;;
9783;SDS011;4931;44.874;-1.092;2023-08-17T05:37:39;9.00;;;5.35;;
9783;SDS011;4931;44.874;-1.092;2023-08-17T05:40:04;9.75;;;5.28;;
9783;SDS011;4931;44.874;-1.092;2023-08-17T05:42:30;10.35;;;5.63;;
9783;SDS011;4931;44.874;-1.092;2023-08-17T05:44:56;7.57;;;5.13;;
9783;SDS011;4931;44.874;-1.092;2023-08-17T05:47:21;8.57;;;5.30;;
9783;SDS011;4931;44.874;-1.092;2023-08-17T05:49:47;10.40;;;5.57;;
9783;SDS011;4931;44.874;-1.092;2023-08-17T05:52:12;9.30;;;5.63;;
9783;SDS011;4931;44.874;-1.092;2023-08-17T05:54:38;8.27;;;5.38;;
9783;SDS011;4931;44.874;-1.092;2023-08-17T05:57:04;14.07;;;6.00;;
9783;SDS011;4931;44.874;-1.092;2023-08-17T05:59:29;9.68;;;6.30;;
9783;SDS011;4931;44.874;-1.092;2023-08-17T06:01:55;12.52;;;5.80;;
9783;SDS011;4931;44.874;-1.092;2023-08-17T06:04:20;10.20;;;5.60;;
9783;SDS011;4931;44.874;-1.092;2023-08-17T06:06:46;7.22;;;5.28;;
9783;SDS011;4931;44.874;-1.092;2023-08-17T06:09:11;11.40;;;5.43;;
9783;SDS011;4931;44.874;-1.092;2023-08-17T06:11:37;11.63;;;5.45;;
9783;SDS011;4931;44.874;-1.092;2023-08-17T06:14:03;8.43;;;5.90;;
9783;SDS011;4931;44.874;-1.092;2023-08-17T06:16:29;9.73;;;5.57;;
9783;SDS011;4931;44.874;-1.092;2023-08-17T06:18:54;13.20;;;6.07;;
9783;SDS011;4931;44.874;-1.092;2023-08-17T06:21:19;11.35;;;6.10;;
9783;SDS011;4931;44.874;-1.092;2023-08-17T06:23:45;8.95;;;5.43;;
9783;SDS011;4931;44.874;-1.092;2023-08-17T06:26:11;10.57;;;5.97;;
9783;SDS011;4931;44.874;-1.092;2023-08-17T06:28:36;10.35;;;6.10;;
9783;SDS011;4931;44.874;-1.092;2023-08-17T06:31:02;10.93;;;5.93;;
9783;SDS011;4931;44.874;-1.092;2023-08-17T06:33:27;11.43;;;5.63;;
9783;SDS011;4931;44.874;-1.092;2023-08-17T06:35:52;12.23;;;5.40;;
9783;SDS011;4931;44.874;-1.092;2023-08-17T06:38:18;12.65;;;5.45;;
9783;SDS011;4931;44.874;-1.092;2023-08-17T06:40:44;10.85;;;5.30;;
9783;SDS011;4931;44.874;-1.092;2023-08-17T06:43:11;9.48;;;5.85;;
9783;SDS011;4931;44.874;-1.092;2023-08-17T06:45:37;10.43;;;5.35;;
9783;SDS011;4931;44.874;-1.092;2023-08-17T06:48:03;11.18;;;5.45;;
9783;SDS011;4931;44.874;-1.092;2023-08-17T06:50:29;10.60;;;5.38;;
9783;SDS011;4931;44.874;-1.092;2023-08-17T06:52:54;7.93;;;5.07;;
9783;SDS011;4931;44.874;-1.092;2023-08-17T06:55:20;9.80;;;5.50;;
9783;SDS011;4931;44.874;-1.092;2023-08-17T06:57:46;11.43;;;5.63;;
9783;SDS011;4931;44.874;-1.092;2023-08-17T07:00:12;11.73;;;5.90;;
9783;SDS011;4931;44.874;-1.092;2023-08-17T07:02:38;10.27;;;5.80;;
9783;SDS011;4931;44.874;-1.092;2023-08-17T07:05:04;10.70;;;5.57;;
9783;SDS011;4931;44.874;-1.092;2023-08-17T07:07:30;10.05;;;5.10;;
9783;SDS011;4931;44.874;-1.092;2023-08-17T07:09:59;10.10;;;5.13;;
9783;SDS011;4931;44.874;-1.092;2023-08-17T07:12:24;12.57;;;5.50;;
9783;SDS011;4931;44.874;-1.092;2023-08-17T07:14:50;9.65;;;4.68;;
9783;SDS011;4931;44.874;-1.092;2023-08-17T07:17:16;11.20;;;5.35;;
9783;SDS011;4931;44.874;-1.092;2023-08-17T07:19:41;10.05;;;4.65;;
9783;SDS011;4931;44.874;-1.092;2023-08-17T07:22:07;10.07;;;4.78;;
9783;SDS011;4931;44.874;-1.092;2023-08-17T07:24:32;9.40;;;4.82;;
9783;SDS011;4931;44.874;-1.092;2023-08-17T07:26:58;11.68;;;5.55;;
9783;SDS011;4931;44.874;-1.092;2023-08-17T07:29:24;10.15;;;5.15;;
9783;SDS011;4931;44.874;-1.092;2023-08-17T07:31:49;9.55;;;5.10;;
9783;SDS011;4931;44.874;-1.092;2023-08-17T07:34:14;11.52;;;5.20;;
9783;SDS011;4931;44.874;-1.092;2023-08-17T07:36:40;9.68;;;5.03;;
9783;SDS011;4931;44.874;-1.092;2023-08-17T07:39:06;8.45;;;4.85;;
9783;SDS011;4931;44.874;-1.092;2023-08-17T07:41:32;8.65;;;5.00;;
9783;SDS011;4931;44.874;-1.092;2023-08-17T07:43:58;5.78;;;3.80;;
9783;SDS011;4931;44.874;-1.092;2023-08-17T07:46:23;6.45;;;3.72;;
9783;SDS011;4931;44.874;-1.092;2023-08-17T07:48:49;5.15;;;3.45;;
9783;SDS011;4931;44.874;-1.092;2023-08-17T07:51:14;5.45;;;3.00;;
9783;SDS011;4931;44.874;-1.092;2023-08-17T07:53:40;4.97;;;2.92;;
9783;SDS011;4931;44.874;-1.092;2023-08-17T07:56:05;10.73;;;3.03;;
9783;SDS011;4931;44.874;-1.092;2023-08-17T07:58:31;7.15;;;2.88;;
9783;SDS011;4931;44.874;-1.092;2023-08-17T08:00:56;6.72;;;2.80;;
9783;SDS011;4931;44.874;-1.092;2023-08-17T08:03:22;3.75;;;2.55;;
9783;SDS011;4931;44.874;-1.092;2023-08-17T08:05:48;4.63;;;2.83;;
9783;SDS011;4931;44.874;-1.092;2023-08-17T08:08:13;6.28;;;2.83;;
9783;SDS011;4931;44.874;-1.092;2023-08-17T08:10:40;3.30;;;2.63;;
9783;SDS011;4931;44.874;-1.092;2023-08-17T08:13:06;5.03;;;2.60;;
9783;SDS011;4931;44.874;-1.092;2023-08-17T08:15:32;5.38;;;2.85;;
9783;SDS011;4931;44.874;-1.092;2023-08-17T08:17:58;6.82;;;2.70;;
9783;SDS011;4931;44.874;-1.092;2023-08-17T08:20:24;4.45;;;2.75;;
9783;SDS011;4931;44.874;-1.092;2023-08-17T08:22:49;7.95;;;2.63;;
9783;SDS011;4931;44.874;-1.092;2023-08-17T08:25:15;5.75;;;2.90;;
9783;SDS011;4931;44.874;-1.092;2023-08-17T08:27:40;5.00;;;2.85;;
9783;SDS011;4931;44.874;-1.092;2023-08-17T08:30:06;5.88;;;3.17;;
9783;SDS011;4931;44.874;-1.092;2023-08-17T08:32:32;6.13;;;2.83;;
9783;SDS011;4931;44.874;-1.092;2023-08-17T08:34:57;5.45;;;3.00;;
9783;SDS011;4931;44.874;-1.092;2023-08-17T08:37:23;5.05;;;3.20;;
9783;SDS011;4931;44.874;-1.092;2023-08-17T08:39:49;9.20;;;3.40;;
9783;SDS011;4931;44.874;-1.092;2023-08-17T08:42:19;6.93;;;3.47;;
9783;SDS011;4931;44.874;-1.092;2023-08-17T08:44:45;5.00;;;3.00;;
9783;SDS011;4931;44.874;-1.092;2023-08-17T08:47:12;7.10;;;3.30;;
9783;SDS011;4931;44.874;-1.092;2023-08-17T08:49:42;7.20;;;3.70;;
9783;SDS011;4931;44.874;-1.092;2023-08-17T08:52:18;5.45;;;3.55;;
9783;SDS011;4931;44.874;-1.092;2023-08-17T08:54:49;4.43;;;3.40;;
9783;SDS011;4931;44.874;-1.092;2023-08-17T08:57:16;10.10;;;3.50;;
9783;SDS011;4931;44.874;-1.092;2023-08-17T08:59:43;5.72;;;3.42;;
9783;SDS011;4931;44.874;-1.092;2023-08-17T09:02:14;7.75;;;3.65;;
9783;SDS011;4931;44.874;-1.092;2023-08-17T09:04:44;5.78;;;3.72;;
9783;SDS011;4931;44.874;-1.092;2023-08-17T09:07:10;8.63;;;3.90;;
9783;SDS011;4931;44.874;-1.092;2023-08-17T09:09:38;6.35;;;3.50;;
9783;SDS011;4931;44.874;-1.092;2023-08-17T09:12:06;8.40;;;3.38;;
9783;SDS011;4931;44.874;-1.092;2023-08-17T09:14:32;8.80;;;3.60;;
9783;SDS011;4931;44.874;-1.092;2023-08-17T09:16:58;6.85;;;3.70;;
9783;SDS011;4931;44.874;-1.092;2023-08-17T09:19:24;7.70;;;3.67;;
9783;SDS011;4931;44.874;-1.092;2023-08-17T09:21:49;5.75;;;3.55;;
9783;SDS011;4931;44.874;-1.092;2023-08-17T09:24:15;6.10;;;3.70;;
9783;SDS011;4931;44.874;-1.092;2023-08-17T09:26:40;6.75;;;3.50;;
9783;SDS011;4931;44.874;-1.092;2023-08-17T09:29:19;5.45;;;3.38;;
9783;SDS011;4931;44.874;-1.092;2023-08-17T09:31:45;7.18;;;3.70;;
9783;SDS011;4931;44.874;-1.092;2023-08-17T09:34:12;6.35;;;3.65;;
9783;SDS011;4931;44.874;-1.092;2023-08-17T09:36:39;8.07;;;3.40;;
9783;SDS011;4931;44.874;-1.092;2023-08-17T09:39:05;9.50;;;4.60;;
9783;SDS011;4931;44.874;-1.092;2023-08-17T09:41:37;7.75;;;3.90;;
9783;SDS011;4931;44.874;-1.092;2023-08-17T09:44:04;7.53;;;3.78;;
9783;SDS011;4931;44.874;-1.092;2023-08-17T09:46:31;4.95;;;3.42;;
9783;SDS011;4931;44.874;-1.092;2023-08-17T09:48:56;5.72;;;3.30;;
9783;SDS011;4931;44.874;-1.092;2023-08-17T09:51:22;6.22;;;3.60;;
9783;SDS011;4931;44.874;-1.092;2023-08-17T09:53:52;5.70;;;3.35;;
9783;SDS011;4931;44.874;-1.092;2023-08-17T09:56:21;6.55;;;3.90;;
9783;SDS011;4931;44.874;-1.092;2023-08-17T09:58:48;8.25;;;3.97;;
9783;SDS011;4931;44.874;-1.092;2023-08-17T10:01:14;6.25;;;3.50;;
9783;SDS011;4931;44.874;-1.092;2023-08-17T10:03:42;6.32;;;3.47;;
9783;SDS011;4931;44.874;-1.092;2023-08-17T10:06:12;8.02;;;3.70;;
9783;SDS011;4931;44.874;-1.092;2023-08-17T10:08:47;6.70;;;3.58;;
9783;SDS011;4931;44.874;-1.092;2023-08-17T10:11:16;6.97;;;3.22;;
9783;SDS011;4931;44.874;-1.092;2023-08-17T10:13:59;9.25;;;3.50;;
9783;SDS011;4931;44.874;-1.092;2023-08-17T10:19:09;6.95;;;3.70;;
9783;SDS011;4931;44.874;-1.092;2023-08-17T10:22:00;6.90;;;3.58;;
9783;SDS011;4931;44.874;-1.092;2023-08-17T10:24:33;8.25;;;3.88;;
9783;SDS011;4931;44.874;-1.092;2023-08-17T10:27:02;6.63;;;4.15;;
9783;SDS011;4931;44.874;-1.092;2023-08-17T10:29:29;8.52;;;3.90;;
9783;SDS011;4931;44.874;-1.092;2023-08-17T10:31:55;5.88;;;3.92;;
9783;SDS011;4931;44.874;-1.092;2023-08-17T10:34:22;5.95;;;3.58;;
9783;SDS011;4931;44.874;-1.092;2023-08-17T10:36:48;8.10;;;3.72;;
9783;SDS011;4931;44.874;-1.092;2023-08-17T10:39:18;9.73;;;4.47;;
9783;SDS011;4931;44.874;-1.092;2023-08-17T10:41:48;7.82;;;4.28;;
9783;SDS011;4931;44.874;-1.092;2023-08-17T10:44:17;8.90;;;5.25;;
9783;SDS011;4931;44.874;-1.092;2023-08-17T10:46:43;5.38;;;4.30;;
9783;SDS011;4931;44.874;-1.092;2023-08-17T10:49:25;9.07;;;4.53;;
9783;SDS011;4931;44.874;-1.092;2023-08-17T10:52:04;7.75;;;4.28;;
9783;SDS011;4931;44.874;-1.092;2023-08-17T10:54:38;7.38;;;4.50;;
9783;SDS011;4931;44.874;-1.092;2023-08-17T11:00:16;10.40;;;5.07;;
9783;SDS011;4931;44.874;-1.092;2023-08-17T11:02:58;7.97;;;5.43;;
9783;SDS011;4931;44.874;-1.092;2023-08-17T11:08:10;6.22;;;4.65;;
9783;SDS011;4931;44.874;-1.092;2023-08-17T11:10:47;7.05;;;5.07;;
9783;SDS011;4931;44.874;-1.092;2023-08-17T11:13:21;7.10;;;4.80;;
9783;SDS011;4931;44.874;-1.092;2023-08-17T11:15:48;9.45;;;5.57;;
9783;SDS011;4931;44.874;-1.092;2023-08-17T11:18:14;5.78;;;4.25;;
9783;SDS011;4931;44.874;-1.092;2023-08-17T11:20:41;14.52;;;4.72;;
9783;SDS011;4931;44.874;-1.092;2023-08-17T11:23:08;7.88;;;5.20;;
9783;SDS011;4931;44.874;-1.092;2023-08-17T11:25:34;8.25;;;5.03;;
9783;SDS011;4931;44.874;-1.092;2023-08-17T11:28:01;7.00;;;5.60;;
9783;SDS011;4931;44.874;-1.092;2023-08-17T11:30:27;6.55;;;5.00;;
9783;SDS011;4931;44.874;-1.092;2023-08-17T11:32:54;10.10;;;5.20;;
9783;SDS011;4931;44.874;-1.092;2023-08-17T11:35:20;10.02;;;6.03;;
9783;SDS011;4931;44.874;-1.092;2023-08-17T11:37:47;8.50;;;5.82;;
9783;SDS011;4931;44.874;-1.092;2023-08-17T11:40:14;6.70;;;5.25;;
9783;SDS011;4931;44.874;-1.092;2023-08-17T11:42:40;9.60;;;6.20;;
9783;SDS011;4931;44.874;-1.092;2023-08-17T11:45:06;7.35;;;5.38;;
9783;SDS011;4931;44.874;-1.092;2023-08-17T11:47:38;7.03;;;5.28;;
9783;SDS011;4931;44.874;-1.092;2023-08-17T11:50:05;10.50;;;5.47;;
9783;SDS011;4931;44.874;-1.092;2023-08-17T11:52:33;15.05;;;6.90;;
9783;SDS011;4931;44.874;-1.092;2023-08-17T11:54:59;8.85;;;6.20;;
9783;SDS011;4931;44.874;-1.092;2023-08-17T11:57:25;9.82;;;6.75;;
9783;SDS011;4931;44.874;-1.092;2023-08-17T11:59:55;9.95;;;5.72;;
9783;SDS011;4931;44.874;-1.092;2023-08-17T12:02:25;7.22;;;5.78;;
9783;SDS011;4931;44.874;-1.092;2023-08-17T12:04:52;8.10;;;6.13;;
9783;SDS011;4931;44.874;-1.092;2023-08-17T12:07:19;9.77;;;5.97;;
9783;SDS011;4931;44.874;-1.092;2023-08-17T12:09:48;9.00;;;5.90;;
9783;SDS011;4931;44.874;-1.092;2023-08-17T12:12:17;8.70;;;6.05;;
9783;SDS011;4931;44.874;-1.092;2023-08-17T12:14:43;8.98;;;6.28;;
9783;SDS011;4931;44.874;-1.092;2023-08-17T12:17:16;9.93;;;5.70;;
9783;SDS011;4931;44.874;-1.092;2023-08-17T12:19:43;11.05;;;6.30;;
9783;SDS011;4931;44.874;-1.092;2023-08-17T12:22:09;9.15;;;5.75;;
9783;SDS011;4931;44.874;-1.092;2023-08-17T12:24:35;9.23;;;6.18;;
9783;SDS011;4931;44.874;-1.092;2023-08-17T12:27:02;12.77;;;6.15;;
9783;SDS011;4931;44.874;-1.092;2023-08-17T12:29:28;8.10;;;5.30;;
9783;SDS011;4931;44.874;-1.092;2023-08-17T12:31:56;9.93;;;6.55;;
9783;SDS011;4931;44.874;-1.092;2023-08-17T12:34:22;6.20;;;3.13;;
9783;SDS011;4931;44.874;-1.092;2023-08-17T12:36:48;8.18;;;3.17;;
9783;SDS011;4931;44.874;-1.092;2023-08-17T12:39:15;10.50;;;3.08;;
9783;SDS011;4931;44.874;-1.092;2023-08-17T12:41:41;10.65;;;2.83;;
9783;SDS011;4931;44.874;-1.092;2023-08-17T12:44:06;6.03;;;3.28;;
9783;SDS011;4931;44.874;-1.092;2023-08-17T12:46:34;5.50;;;3.20;;
9783;SDS011;4931;44.874;-1.092;2023-08-17T12:49:00;7.25;;;2.95;;
9783;SDS011;4931;44.874;-1.092;2023-08-17T12:51:25;7.28;;;3.50;;
9783;SDS011;4931;44.874;-1.092;2023-08-17T12:53:51;9.48;;;3.17;;
9783;SDS011;4931;44.874;-1.092;2023-08-17T12:56:17;5.10;;;2.75;;
9783;SDS011;4931;44.874;-1.092;2023-08-17T12:58:42;4.40;;;2.85;;
9783;SDS011;4931;44.874;-1.092;2023-08-17T13:01:08;8.77;;;4.63;;
9783;SDS011;4931;44.874;-1.092;2023-08-17T13:03:34;6.43;;;3.10;;
9783;SDS011;4931;44.874;-1.092;2023-08-17T13:05:59;5.95;;;2.78;;
9783;SDS011;4931;44.874;-1.092;2023-08-17T13:08:25;6.70;;;3.03;;
9783;SDS011;4931;44.874;-1.092;2023-08-17T13:10:50;6.13;;;3.08;;
9783;SDS011;4931;44.874;-1.092;2023-08-17T13:13:16;5.65;;;2.90;;
9783;SDS011;4931;44.874;-1.092;2023-08-17T13:15:41;8.90;;;3.20;;
9783;SDS011;4931;44.874;-1.092;2023-08-17T13:18:07;6.25;;;3.00;;
9783;SDS011;4931;44.874;-1.092;2023-08-17T13:20:33;6.55;;;2.70;;
9783;SDS011;4931;44.874;-1.092;2023-08-17T13:22:58;9.68;;;3.33;;
9783;SDS011;4931;44.874;-1.092;2023-08-17T13:25:24;6.47;;;3.50;;
9783;SDS011;4931;44.874;-1.092;2023-08-17T13:27:50;7.43;;;3.13;;
9783;SDS011;4931;44.874;-1.092;2023-08-17T13:30:16;8.90;;;3.92;;
9783;SDS011;4931;44.874;-1.092;2023-08-17T13:32:41;5.97;;;3.28;;
9783;SDS011;4931;44.874;-1.092;2023-08-17T13:35:07;6.95;;;3.28;;
9783;SDS011;4931;44.874;-1.092;2023-08-17T13:37:35;5.70;;;3.65;;
9783;SDS011;4931;44.874;-1.092;2023-08-17T13:40:02;6.32;;;3.40;;
9783;SDS011;4931;44.874;-1.092;2023-08-17T13:42:27;6.20;;;3.38;;
9783;SDS011;4931;44.874;-1.092;2023-08-17T13:44:53;7.00;;;2.90;;
9783;SDS011;4931;44.874;-1.092;2023-08-17T13:47:18;5.25;;;3.25;;
9783;SDS011;4931;44.874;-1.092;2023-08-17T13:49:44;6.03;;;3.13;;
9783;SDS011;4931;44.874;-1.092;2023-08-17T13:52:10;5.85;;;3.45;;
9783;SDS011;4931;44.874;-1.092;2023-08-17T13:54:36;5.22;;;3.38;;
9783;SDS011;4931;44.874;-1.092;2023-08-17T13:57:01;7.95;;;2.90;;
9783;SDS011;4931;44.874;-1.092;2023-08-17T13:59:27;13.50;;;3.58;;
9783;SDS011;4931;44.874;-1.092;2023-08-17T14:01:52;7.53;;;3.10;;
9783;SDS011;4931;44.874;-1.092;2023-08-17T14:04:18;9.05;;;3.53;;
9783;SDS011;4931;44.874;-1.092;2023-08-17T14:06:43;7.13;;;3.10;;
9783;SDS011;4931;44.874;-1.092;2023-08-17T14:09:09;7.15;;;3.20;;
9783;SDS011;4931;44.874;-1.092;2023-08-17T14:11:34;6.05;;;3.30;;
9783;SDS011;4931;44.874;-1.092;2023-08-17T14:14:00;6.13;;;3.58;;
9783;SDS011;4931;44.874;-1.092;2023-08-17T14:16:25;6.55;;;3.50;;
9783;SDS011;4931;44.874;-1.092;2023-08-17T14:18:51;8.45;;;3.72;;
9783;SDS011;4931;44.874;-1.092;2023-08-17T14:21:17;7.63;;;3.45;;
9783;SDS011;4931;44.874;-1.092;2023-08-17T14:23:43;6.70;;;3.70;;
9783;SDS011;4931;44.874;-1.092;2023-08-17T14:26:09;6.35;;;4.00;;
9783;SDS011;4931;44.874;-1.092;2023-08-17T14:28:35;6.60;;;3.75;;
9783;SDS011;4931;44.874;-1.092;2023-08-17T14:31:00;4.65;;;3.70;;
9783;SDS011;4931;44.874;-1.092;2023-08-17T14:33:26;6.18;;;3.60;;
9783;SDS011;4931;44.874;-1.092;2023-08-17T14:35:51;7.88;;;3.70;;
9783;SDS011;4931;44.874;-1.092;2023-08-17T14:38:17;7.90;;;3.45;;
9783;SDS011;4931;44.874;-1.092;2023-08-17T14:40:43;6.97;;;3.53;;
9783;SDS011;4931;44.874;-1.092;2023-08-17T14:43:10;6.55;;;3.40;;
9783;SDS011;4931;44.874;-1.092;2023-08-17T14:45:39;8.32;;;3.50;;
9783;SDS011;4931;44.874;-1.092;2023-08-17T14:48:05;6.72;;;3.42;;
9783;SDS011;4931;44.874;-1.092;2023-08-17T14:50:32;7.43;;;3.38;;
9783;SDS011;4931;44.874;-1.092;2023-08-17T14:53:02;6.97;;;3.70;;
9783;SDS011;4931;44.874;-1.092;2023-08-17T14:55:32;6.97;;;3.60;;
9783;SDS011;4931;44.874;-1.092;2023-08-17T14:57:58;9.30;;;3.43;;
9783;SDS011;4931;44.874;-1.092;2023-08-17T15:00:24;6.63;;;3.70;;
9783;SDS011;4931;44.874;-1.092;2023-08-17T15:02:50;7.25;;;3.70;;
9783;SDS011;4931;44.874;-1.092;2023-08-17T15:05:16;7.97;;;3.85;;
9783;SDS011;4931;44.874;-1.092;2023-08-17T15:07:41;9.40;;;3.70;;
9783;SDS011;4931;44.874;-1.092;2023-08-17T15:10:07;8.18;;;3.80;;